createdAt,value
2018-01-28T00:00:43.242Z,101923.95
2018-01-28T00:03:11.595Z,101923.80
2018-01-28T00:05:39.909Z,101901.52
2018-01-28T00:08:08.258Z,101899.42
2018-01-28T00:10:36.782Z,101882.97
2018-01-28T00:13:05.140Z,101886.86
2018-01-28T00:15:33.453Z,101879.00
2018-01-28T00:18:02.608Z,101897.04
2018-01-28T00:20:30.928Z,101904.53
2018-01-28T00:22:59.278Z,101886.11
2018-01-28T00:25:27.701Z,101877.81
2018-01-28T00:27:56.037Z,101877.70
2018-01-28T00:30:24.387Z,101886.20
2018-01-28T00:32:53.333Z,101875.66
2018-01-28T00:35:22.431Z,101896.82
2018-01-28T00:37:50.744Z,101889.45
2018-01-28T00:40:19.179Z,101891.20
2018-01-28T00:42:47.493Z,101889.31
2018-01-28T00:45:15.785Z,101885.61
2018-01-28T00:47:44.113Z,101866.73
2018-01-28T00:50:13.229Z,101863.05
2018-01-28T00:52:42.309Z,101871.83
2018-01-28T00:55:11.922Z,101866.64
2018-01-28T00:57:40.270Z,101869.31
2018-01-28T01:00:08.604Z,101843.14
2018-01-28T01:02:36.962Z,101850.51
2018-01-28T01:05:05.274Z,101851.48
2018-01-28T01:07:33.587Z,101862.05
2018-01-28T01:10:01.929Z,101855.09
2018-01-28T01:12:30.266Z,101864.34
2018-01-28T01:14:58.586Z,101859.96
2018-01-28T01:17:26.985Z,101860.70
2018-01-28T01:19:55.317Z,101858.27
2018-01-28T01:22:23.718Z,101842.20
2018-01-28T01:24:52.117Z,101845.34
2018-01-28T01:27:20.454Z,101869.65
2018-01-28T01:29:48.797Z,101864.61
2018-01-28T01:32:17.193Z,101854.27
2018-01-28T01:34:46.291Z,101850.92
2018-01-28T01:37:15.380Z,101868.52
2018-01-28T01:39:43.897Z,101872.11
2018-01-28T01:42:12.283Z,101862.53
2018-01-28T01:44:40.610Z,101854.59
2018-01-28T01:47:08.978Z,101847.09
2018-01-28T01:49:37.294Z,101851.98
2018-01-28T01:52:06.387Z,101850.27
2018-01-28T01:54:34.787Z,101823.20
2018-01-28T01:57:03.128Z,101840.64
2018-01-28T01:59:31.461Z,101848.98
2018-01-28T02:02:00.232Z,101833.33
2018-01-28T02:04:28.554Z,101853.87
2018-01-28T02:06:56.908Z,101840.12
2018-01-28T02:09:25.244Z,101843.20
2018-01-28T02:11:54.343Z,101845.88
2018-01-28T02:14:23.438Z,101840.37
2018-01-28T02:16:52.544Z,101838.77
2018-01-28T02:19:21.636Z,101870.16
2018-01-28T02:21:50.717Z,101852.89
2018-01-28T02:24:20.153Z,101874.94
2018-01-28T02:26:48.498Z,101857.73
2018-01-28T02:29:16.855Z,101862.52
2018-01-28T02:31:45.234Z,101870.00
2018-01-28T02:34:14.426Z,101865.48
2018-01-28T02:36:42.741Z,101897.13
2018-01-28T02:39:11.082Z,101871.85
2018-01-28T02:41:39.424Z,101867.84
2018-01-28T02:44:07.809Z,101869.86
2018-01-28T02:46:36.275Z,101871.48
2018-01-28T02:49:04.953Z,101857.10
2018-01-28T02:51:34.091Z,101849.61
2018-01-28T02:54:02.495Z,101853.27
2018-01-28T02:56:30.790Z,101853.78
2018-01-28T02:58:59.088Z,101852.46
2018-01-28T03:01:27.443Z,101851.78
2018-01-28T03:03:55.772Z,101838.30
2018-01-28T03:06:24.160Z,101830.57
2018-01-28T03:08:52.980Z,101843.21
2018-01-28T03:11:21.303Z,101842.84
2018-01-28T03:13:49.640Z,101852.17
2018-01-28T03:16:17.957Z,101856.59
2018-01-28T03:18:47.035Z,101845.22
2018-01-28T03:21:15.348Z,101854.67
2018-01-28T03:23:43.740Z,101865.95
2018-01-28T03:26:12.045Z,101860.48
2018-01-28T03:28:40.332Z,101850.57
2018-01-28T03:31:08.776Z,101866.88
2018-01-28T03:33:37.097Z,101868.04
2018-01-28T03:36:05.427Z,101862.94
2018-01-28T03:38:33.787Z,101876.84
2018-01-28T03:41:02.128Z,101870.61
2018-01-28T03:43:30.484Z,101891.98
2018-01-28T03:45:58.852Z,101883.95
2018-01-28T03:48:27.152Z,101907.14
2018-01-28T03:50:55.479Z,101903.83
2018-01-28T03:53:23.886Z,101912.36
2018-01-28T03:55:52.204Z,101914.58
2018-01-28T03:58:20.532Z,101903.71
2018-01-28T04:00:48.899Z,101910.65
2018-01-28T04:03:17.215Z,101910.16
2018-01-28T04:05:46.300Z,101917.39
2018-01-28T04:08:14.615Z,101911.75
2018-01-28T04:10:42.982Z,101918.06
2018-01-28T04:13:11.355Z,101923.96
2018-01-28T04:15:40.157Z,101910.83
2018-01-28T04:18:08.463Z,101899.36
2018-01-28T04:20:37.548Z,101908.50
2018-01-28T04:23:06.624Z,101907.09
2018-01-28T04:25:34.949Z,101915.73
2018-01-28T04:28:03.288Z,101916.90
2018-01-28T04:30:31.622Z,101914.25
2018-01-28T04:32:59.949Z,101913.27
2018-01-28T04:35:28.249Z,101915.31
2018-01-28T04:37:57.451Z,101912.67
2018-01-28T04:40:25.773Z,101912.36
2018-01-28T04:42:54.278Z,101920.95
2018-01-28T04:45:22.759Z,101915.19
2018-01-28T04:47:51.211Z,101921.14
2018-01-28T04:50:19.536Z,101925.55
2018-01-28T04:52:47.905Z,101929.12
2018-01-28T04:55:16.984Z,101941.09
2018-01-28T04:57:46.072Z,101927.09
2018-01-28T05:00:14.904Z,101927.52
2018-01-28T05:02:43.231Z,101943.66
2018-01-28T05:05:11.547Z,101943.97
2018-01-28T05:07:39.896Z,101927.94
2018-01-28T05:10:08.212Z,101930.03
2018-01-28T05:12:36.535Z,101936.78
2018-01-28T05:15:04.847Z,101955.33
2018-01-28T05:17:33.168Z,101973.31
2018-01-28T05:20:01.484Z,101971.78
2018-01-28T05:22:30.088Z,101972.83
2018-01-28T05:24:58.450Z,101969.69
2018-01-28T05:27:26.762Z,101963.38
2018-01-28T05:29:55.193Z,101979.82
2018-01-28T05:32:23.521Z,101977.55
2018-01-28T05:34:51.857Z,101986.20
2018-01-28T05:37:20.237Z,101977.41
2018-01-28T05:39:48.616Z,101973.78
2018-01-28T05:42:16.932Z,101993.23
2018-01-28T05:44:45.346Z,102002.22
2018-01-28T05:47:13.655Z,102005.67
2018-01-28T05:49:41.961Z,101996.08
2018-01-28T05:52:10.293Z,102005.22
2018-01-28T05:54:38.610Z,102003.93
2018-01-28T05:57:06.954Z,101994.78
2018-01-28T05:59:35.328Z,102005.28
2018-01-28T06:02:03.680Z,102013.20
2018-01-28T06:04:31.980Z,102012.66
2018-01-28T06:07:01.054Z,102023.95
2018-01-28T06:09:29.406Z,102024.78
2018-01-28T06:11:57.732Z,102025.36
2018-01-28T06:14:26.101Z,102025.50
2018-01-28T06:16:54.434Z,102034.15
2018-01-28T06:19:22.749Z,102027.98
2018-01-28T06:21:51.958Z,102024.58
2018-01-28T06:24:20.269Z,102038.31
2018-01-28T06:26:48.598Z,102045.98
2018-01-28T06:29:17.808Z,102053.48
2018-01-28T06:31:46.155Z,102057.97
2018-01-28T06:34:15.281Z,102064.11
2018-01-28T06:36:44.549Z,102068.52
2018-01-28T06:39:12.935Z,102071.59
2018-01-28T06:41:42.094Z,102064.11
2018-01-28T06:44:10.478Z,102075.29
2018-01-28T06:46:38.902Z,102077.21
2018-01-28T06:49:08.058Z,102074.56
2018-01-28T06:51:37.176Z,102062.00
2018-01-28T06:54:05.630Z,102063.69
2018-01-28T06:56:34.141Z,102072.54
2018-01-28T06:59:02.572Z,102069.28
2018-01-28T07:01:30.884Z,102078.55
2018-01-28T07:03:59.261Z,102085.37
2018-01-28T07:06:27.762Z,102084.89
2018-01-28T07:08:56.149Z,102092.02
2018-01-28T07:11:24.525Z,102089.20
2018-01-28T07:13:53.104Z,102104.01
2018-01-28T07:16:21.509Z,102100.44
2018-01-28T07:18:50.568Z,102098.61
2018-01-28T07:21:19.061Z,102113.17
2018-01-28T07:23:47.428Z,102111.68
2018-01-28T07:26:15.798Z,102121.58
2018-01-28T07:28:44.294Z,102135.09
2018-01-28T07:31:12.670Z,102126.58
2018-01-28T07:33:41.072Z,102115.13
2018-01-28T07:36:09.643Z,102107.50
2018-01-28T07:38:37.971Z,102103.69
2018-01-28T07:41:06.535Z,102110.88
2018-01-28T07:43:34.868Z,102099.95
2018-01-28T07:46:03.240Z,102092.34
2018-01-28T07:48:31.644Z,102096.63
2018-01-28T07:51:00.029Z,102105.66
2018-01-28T07:53:28.393Z,102107.09
2018-01-28T07:55:56.701Z,102108.80
2018-01-28T07:58:25.137Z,102104.25
2018-01-28T08:00:53.463Z,102106.91
2018-01-28T08:03:21.909Z,102107.56
2018-01-28T08:05:50.348Z,102107.64
2018-01-28T08:08:23.081Z,102108.05
2018-01-28T08:10:56.867Z,102111.37
2018-01-28T08:16:31.967Z,102155.39
2018-01-28T08:19:01.038Z,102149.42
2018-01-28T08:21:29.340Z,102161.17
2018-01-28T08:23:58.108Z,102167.38
2018-01-28T08:26:28.696Z,102149.28
2018-01-28T08:28:57.939Z,102155.07
2018-01-28T08:31:26.284Z,102169.58
2018-01-28T08:33:54.626Z,102149.16
2018-01-28T08:36:23.719Z,102148.08
2018-01-28T08:38:52.882Z,102147.38
2018-01-28T08:41:21.228Z,102157.52
2018-01-28T08:43:49.616Z,102158.85
2018-01-28T08:46:17.983Z,102155.41
2018-01-28T08:48:46.305Z,102136.58
2018-01-28T08:51:14.620Z,102147.35
2018-01-28T08:53:43.800Z,102139.84
2018-01-28T08:56:12.147Z,102154.64
2018-01-28T08:58:40.511Z,102159.41
2018-01-28T09:01:08.948Z,102160.03
2018-01-28T09:03:38.034Z,102155.88
2018-01-28T09:06:06.356Z,102160.73
2018-01-28T09:08:34.694Z,102157.66
2018-01-28T09:11:03.035Z,102153.20
2018-01-28T09:13:31.360Z,102155.28
2018-01-28T09:16:00.982Z,102161.36
2018-01-28T09:18:29.301Z,102170.14
2018-01-28T09:20:57.601Z,102167.55
2018-01-28T09:23:26.223Z,102149.63
2018-01-28T09:25:54.565Z,102153.50
2018-01-28T09:28:22.896Z,102150.53
2018-01-28T09:30:51.237Z,102162.80
2018-01-28T09:33:19.589Z,102165.17
2018-01-28T09:35:48.674Z,102168.91
2018-01-28T09:38:17.028Z,102165.00
2018-01-28T09:40:45.365Z,102169.61
2018-01-28T09:43:13.719Z,102169.97
2018-01-28T09:45:42.135Z,102168.70
2018-01-28T09:48:10.484Z,102156.19
2018-01-28T09:50:39.594Z,102158.09
2018-01-28T09:53:07.952Z,102173.63
2018-01-28T09:55:36.270Z,102167.97
2018-01-28T09:58:04.628Z,102186.88
2018-01-28T10:00:33.013Z,102190.23
2018-01-28T10:03:01.330Z,102211.55
2018-01-28T10:05:29.709Z,102202.29
2018-01-28T10:07:58.474Z,102208.65
2018-01-28T10:10:26.796Z,102228.38
2018-01-28T10:12:55.160Z,102219.47
2018-01-28T10:15:23.496Z,102220.03
2018-01-28T10:17:52.578Z,102222.35
2018-01-28T10:20:20.896Z,102217.42
2018-01-28T10:22:49.259Z,102197.30
2018-01-28T10:25:18.345Z,102203.30
2018-01-28T10:27:47.434Z,102191.64
2018-01-28T10:30:15.962Z,102163.28
2018-01-28T10:32:44.267Z,102176.37
2018-01-28T10:35:12.604Z,102187.80
2018-01-28T10:37:40.985Z,102192.87
2018-01-28T10:40:09.328Z,102192.78
2018-01-28T10:42:37.643Z,102211.52
2018-01-28T10:45:05.989Z,102208.94
2018-01-28T10:47:34.292Z,102214.45
2018-01-28T10:50:03.414Z,102213.48
2018-01-28T10:52:31.832Z,102217.63
2018-01-28T10:55:00.180Z,102215.89
2018-01-28T10:57:28.496Z,102243.77
2018-01-28T10:59:56.835Z,102253.93
2018-01-28T11:02:25.174Z,102232.74
2018-01-28T11:04:54.269Z,102245.84
2018-01-28T11:07:23.402Z,102230.16
2018-01-28T11:09:51.721Z,102217.07
2018-01-28T11:12:20.104Z,102223.09
2018-01-28T11:14:49.013Z,102211.85
2018-01-28T11:17:18.120Z,102215.42
2018-01-28T11:19:47.232Z,102226.72
2018-01-28T11:22:15.611Z,102230.16
2018-01-28T11:24:43.957Z,102216.31
2018-01-28T11:27:13.081Z,102224.90
2018-01-28T11:29:41.436Z,102214.17
2018-01-28T11:32:10.583Z,102206.48
2018-01-28T11:34:38.894Z,102208.55
2018-01-28T11:37:07.287Z,102212.85
2018-01-28T11:39:36.388Z,102218.66
2018-01-28T11:42:04.708Z,102221.57
2018-01-28T11:44:33.049Z,102220.55
2018-01-28T11:47:02.127Z,102203.69
2018-01-28T11:49:30.470Z,102182.23
2018-01-28T11:51:59.069Z,102191.47
2018-01-28T11:54:27.926Z,102190.24
2018-01-28T11:56:56.285Z,102180.66
2018-01-28T11:59:25.450Z,102179.48
2018-01-28T12:01:53.805Z,102188.72
2018-01-28T12:04:22.184Z,102182.66
2018-01-28T12:06:50.525Z,102181.41
2018-01-28T12:09:19.671Z,102189.17
2018-01-28T12:11:48.029Z,102206.61
2018-01-28T12:14:16.454Z,102204.50
2018-01-28T12:16:45.698Z,102199.55
2018-01-28T12:19:14.013Z,102210.35
2018-01-28T12:21:42.417Z,102210.00
2018-01-28T12:24:10.750Z,102207.06
2018-01-28T12:26:39.080Z,102215.80
2018-01-28T12:29:08.429Z,102209.67
2018-01-28T12:31:36.761Z,102228.91
2018-01-28T12:34:05.067Z,102223.55
2018-01-28T12:36:33.443Z,102226.31
2018-01-28T12:39:01.788Z,102230.31
2018-01-28T12:41:30.121Z,102215.73
2018-01-28T12:43:58.515Z,102209.37
2018-01-28T12:46:26.809Z,102205.63
2018-01-28T12:48:55.139Z,102205.06
2018-01-28T12:51:23.506Z,102199.27
2018-01-28T12:53:51.848Z,102204.72
2018-01-28T12:56:20.172Z,102200.00
2018-01-28T12:58:48.540Z,102204.34
2018-01-28T13:01:16.865Z,102204.85
2018-01-28T13:03:45.204Z,102206.00
2018-01-28T13:06:14.178Z,102216.65
2018-01-28T13:08:42.506Z,102211.61
2018-01-28T13:11:10.860Z,102203.61
2018-01-28T13:13:39.213Z,102199.73
2018-01-28T13:16:08.336Z,102200.53
2018-01-28T13:18:36.718Z,102186.92
2018-01-28T13:21:05.080Z,102181.64
2018-01-28T13:23:34.158Z,102163.90
2018-01-28T13:26:02.494Z,102173.81
2018-01-28T13:28:31.247Z,102184.42
2018-01-28T13:30:59.559Z,102170.17
2018-01-28T13:33:27.908Z,102173.02
2018-01-28T13:35:56.230Z,102161.99
2018-01-28T13:38:24.552Z,102149.13
2018-01-28T13:40:52.869Z,102148.64
2018-01-28T13:43:21.696Z,102151.47
2018-01-28T13:45:50.010Z,102154.12
2018-01-28T13:48:18.330Z,102155.28
2018-01-28T13:50:47.136Z,102160.71
2018-01-28T13:53:15.454Z,102162.25
2018-01-28T13:55:43.806Z,102162.45
2018-01-28T13:58:12.918Z,102149.39
2018-01-28T14:00:42.022Z,102160.08
2018-01-28T14:03:10.364Z,102155.62
2018-01-28T14:05:38.704Z,102171.66
2018-01-28T14:08:07.062Z,102171.45
2018-01-28T14:10:35.382Z,102169.50
2018-01-28T14:13:03.961Z,102179.81
2018-01-28T14:15:32.289Z,102171.20
2018-01-28T14:18:01.550Z,102179.81
2018-01-28T14:20:30.176Z,102170.45
2018-01-28T14:22:58.487Z,102175.43
2018-01-28T14:25:26.803Z,102173.66
2018-01-28T14:27:55.158Z,102180.47
2018-01-28T14:30:23.502Z,102178.95
2018-01-28T14:32:51.825Z,102177.55
2018-01-28T14:35:21.054Z,102170.36
2018-01-28T14:37:49.378Z,102176.55
2018-01-28T14:40:17.694Z,102181.48
2018-01-28T14:42:46.021Z,102182.34
2018-01-28T14:45:14.328Z,102177.47
2018-01-28T14:47:42.640Z,102176.52
2018-01-28T14:50:10.969Z,102169.70
2018-01-28T14:52:39.300Z,102164.84
2018-01-28T14:55:07.624Z,102172.20
2018-01-28T14:57:36.477Z,102178.23
2018-01-28T15:00:05.590Z,102180.20
2018-01-28T15:02:33.951Z,102179.13
2018-01-28T15:05:02.351Z,102176.48
2018-01-28T15:07:30.752Z,102171.55
2018-01-28T15:09:59.095Z,102155.29
2018-01-28T15:12:28.190Z,102150.67
2018-01-28T15:14:57.279Z,102161.17
2018-01-28T15:17:26.378Z,102155.07
2018-01-28T15:19:55.583Z,102160.30
2018-01-28T15:22:23.947Z,102159.08
2018-01-28T15:24:52.265Z,102153.02
2018-01-28T15:27:20.618Z,102153.20
2018-01-28T15:29:48.935Z,102144.73
2018-01-28T15:32:17.274Z,102159.79
2018-01-28T15:34:46.870Z,102156.88
2018-01-28T15:37:15.196Z,102151.49
2018-01-28T15:39:43.610Z,102154.33
2018-01-28T15:42:12.317Z,102150.20
2018-01-28T15:44:40.647Z,102141.77
2018-01-28T15:47:08.950Z,102157.57
2018-01-28T15:49:37.303Z,102150.73
2018-01-28T15:52:05.640Z,102154.50
2018-01-28T15:54:33.955Z,102150.70
2018-01-28T15:57:02.300Z,102149.41
2018-01-28T15:59:30.606Z,102150.23
2018-01-28T16:01:58.915Z,102135.36
2018-01-28T16:04:27.429Z,102127.98
2018-01-28T16:06:56.500Z,102135.55
2018-01-28T16:09:24.849Z,102129.47
2018-01-28T16:11:53.569Z,102129.47
2018-01-28T16:14:21.905Z,102111.75
2018-01-28T16:16:50.213Z,102122.63
2018-01-28T16:19:18.562Z,102116.81
2018-01-28T16:21:46.869Z,102127.59
2018-01-28T16:24:15.172Z,102119.25
2018-01-28T16:26:43.955Z,102114.23
2018-01-28T16:29:12.261Z,102121.86
2018-01-28T16:31:40.576Z,102103.59
2018-01-28T16:34:08.955Z,102111.93
2018-01-28T16:36:37.317Z,102100.91
2018-01-28T16:39:06.331Z,102094.80
2018-01-28T16:41:34.680Z,102088.16
2018-01-28T16:44:03.015Z,102089.37
2018-01-28T16:46:31.376Z,102092.31
2018-01-28T16:49:00.500Z,102084.67
2018-01-28T16:54:03.263Z,102089.55
2018-01-28T16:56:31.619Z,102087.15
2018-01-28T16:58:59.980Z,102094.02
2018-01-28T17:01:28.342Z,102096.22
2018-01-28T17:03:56.679Z,102095.98
2018-01-28T17:06:25.036Z,102093.32
2018-01-28T17:08:53.667Z,102092.16
2018-01-28T17:11:22.001Z,102085.12
2018-01-28T17:13:50.314Z,102089.44
2018-01-28T17:16:18.656Z,102094.12
2018-01-28T17:18:46.988Z,102096.82
2018-01-28T17:21:15.334Z,102093.84
2018-01-28T17:23:44.182Z,102088.38
2018-01-28T17:26:12.483Z,102084.06
2018-01-28T17:28:40.807Z,102080.61
2018-01-28T17:31:09.644Z,102081.11
2018-01-28T17:33:37.993Z,102082.38
2018-01-28T17:36:07.099Z,102079.61
2018-01-28T17:38:36.239Z,102072.25
2018-01-28T17:41:04.598Z,102073.37
2018-01-28T17:43:32.972Z,102082.49
2018-01-28T17:46:01.321Z,102071.17
2018-01-28T17:48:29.675Z,102068.05
2018-01-28T17:50:58.014Z,102069.75
2018-01-28T17:53:26.780Z,102068.01
2018-01-28T17:55:55.128Z,102066.17
2018-01-28T17:58:23.470Z,102064.56
2018-01-28T18:00:52.167Z,102064.08
2018-01-28T18:03:20.462Z,102063.28
2018-01-28T18:05:48.792Z,102062.09
2018-01-28T18:08:17.168Z,102064.08
2018-01-28T18:10:45.528Z,102064.95
2018-01-28T18:13:13.866Z,102074.58
2018-01-28T18:15:43.512Z,102061.59
2018-01-28T18:18:12.629Z,102063.52
2018-01-28T18:20:40.942Z,102074.41
2018-01-28T18:23:09.310Z,102065.45
2018-01-28T18:25:37.627Z,102070.86
2018-01-28T18:28:06.332Z,102060.53
2018-01-28T18:30:34.731Z,102069.85
2018-01-28T18:33:03.088Z,102053.89
2018-01-28T18:35:31.417Z,102055.67
2018-01-28T18:38:00.252Z,102051.47
2018-01-28T18:40:29.404Z,102051.74
2018-01-28T18:42:57.750Z,102055.12
2018-01-28T18:45:26.172Z,102044.53
2018-01-28T18:47:54.530Z,102044.34
2018-01-28T18:50:22.853Z,102040.58
2018-01-28T18:52:51.216Z,102048.45
2018-01-28T18:55:19.570Z,102039.97
2018-01-28T18:57:47.950Z,102043.78
2018-01-28T19:00:16.693Z,102044.57
2018-01-28T19:02:45.815Z,102034.95
2018-01-28T19:05:14.170Z,102041.63
2018-01-28T19:07:43.303Z,102043.75
2018-01-28T19:10:11.678Z,102042.27
2018-01-28T19:12:40.029Z,102055.05
2018-01-28T19:15:09.558Z,102062.51
2018-01-28T19:17:37.933Z,102059.39
2018-01-28T19:20:06.261Z,102057.74
2018-01-28T19:22:34.693Z,102054.89
2018-01-28T19:25:03.060Z,102059.82
2018-01-28T19:27:31.383Z,102062.22
2018-01-28T19:29:59.737Z,102059.14
2018-01-28T19:32:28.054Z,102062.38
2018-01-28T19:34:56.385Z,102061.41
2018-01-28T19:37:24.777Z,102064.17
2018-01-28T19:39:53.123Z,102064.31
2018-01-28T19:42:22.212Z,102059.83
2018-01-28T19:44:50.637Z,102071.17
2018-01-28T19:47:18.992Z,102066.80
2018-01-28T19:49:47.346Z,102071.65
2018-01-28T19:52:15.938Z,102068.42
2018-01-28T19:54:44.285Z,102072.12
2018-01-28T19:57:12.644Z,102072.37
2018-01-28T19:59:40.974Z,102078.84
2018-01-28T20:02:09.295Z,102070.91
2018-01-28T20:04:37.624Z,102073.20
2018-01-28T20:07:06.342Z,102070.83
2018-01-28T20:09:34.668Z,102066.97
2018-01-28T20:12:03.030Z,102071.63
2018-01-28T20:14:31.416Z,102062.02
2018-01-28T20:16:59.813Z,102061.61
2018-01-28T20:19:28.164Z,102059.38
2018-01-28T20:21:56.516Z,102054.36
2018-01-28T20:24:24.914Z,102050.23
2018-01-28T20:26:53.224Z,102056.02
2018-01-28T20:29:22.156Z,102062.81
2018-01-28T20:31:50.508Z,102055.60
2018-01-28T20:34:18.872Z,102053.23
2018-01-28T20:36:47.457Z,102055.11
2018-01-28T20:39:15.776Z,102059.38
2018-01-28T20:41:44.889Z,102060.25
2018-01-28T20:44:13.966Z,102055.40
2018-01-28T20:46:43.073Z,102056.60
2018-01-28T20:49:12.207Z,102053.81
2018-01-28T20:51:40.675Z,102061.53
2018-01-28T20:54:09.018Z,102059.19
2018-01-28T20:56:37.346Z,102064.63
2018-01-28T20:59:05.742Z,102058.41
2018-01-28T21:01:34.087Z,102067.11
2018-01-28T21:04:02.429Z,102060.40
2018-01-28T21:06:31.510Z,102060.75
2018-01-28T21:08:59.815Z,102061.19
2018-01-28T21:11:28.905Z,102059.33
2018-01-28T21:13:58.498Z,102061.98
2018-01-28T21:16:26.831Z,102062.05
2018-01-28T21:18:55.150Z,102062.82
2018-01-28T21:21:24.259Z,102062.34
2018-01-28T21:23:53.363Z,102062.05
2018-01-28T21:26:22.459Z,102066.05
2018-01-28T21:28:52.398Z,102063.34
2018-01-28T21:31:20.733Z,102072.55
2018-01-28T21:33:49.057Z,102066.83
2018-01-28T21:36:17.461Z,102069.40
2018-01-28T21:38:45.996Z,102066.05
2018-01-28T21:41:14.337Z,102060.63
2018-01-28T21:43:42.687Z,102068.69
2018-01-28T21:46:11.743Z,102070.20
2018-01-28T21:48:40.122Z,102065.62
2018-01-28T21:51:08.480Z,102069.70
2018-01-28T21:53:37.604Z,102071.27
2018-01-28T21:56:07.496Z,102075.34
2018-01-28T21:58:36.675Z,102075.48
2018-01-28T22:01:04.980Z,102078.56
2018-01-28T22:03:33.312Z,102072.92
2018-01-28T22:06:01.646Z,102072.34
2018-01-28T22:08:30.704Z,102072.70
2018-01-28T22:10:59.042Z,102068.20
2018-01-28T22:13:27.383Z,102067.48
2018-01-28T22:15:55.701Z,102056.05
2018-01-28T22:18:24.034Z,102055.05
2018-01-28T22:20:52.573Z,102064.05
2018-01-28T22:23:20.911Z,102051.05
2018-01-28T22:25:49.239Z,102061.77
2018-01-28T22:28:17.595Z,102057.75
2018-01-28T22:30:45.941Z,102056.05
2018-01-28T22:33:14.261Z,102057.75
2018-01-28T22:35:42.590Z,102056.19
2018-01-28T22:38:10.909Z,102063.48
2018-01-28T22:40:39.242Z,102059.77
2018-01-28T22:43:07.664Z,102062.77
2018-01-28T22:45:36.048Z,102051.83
2018-01-28T22:48:04.539Z,102060.62
2018-01-28T22:50:32.901Z,102054.97
2018-01-28T22:53:01.246Z,102051.18
2018-01-28T22:55:29.555Z,102055.18
2018-01-28T22:57:57.903Z,102051.19
2018-01-28T23:00:26.198Z,102050.40
2018-01-28T23:02:55.283Z,102057.19
2018-01-28T23:05:24.630Z,102055.55
2018-01-28T23:07:52.948Z,102054.19
2018-01-28T23:10:21.295Z,102061.05
2018-01-28T23:12:49.673Z,102064.98
2018-01-28T23:15:18.017Z,102067.34
2018-01-28T23:17:46.326Z,102063.69
2018-01-28T23:20:14.684Z,102055.19
2018-01-28T23:22:42.991Z,102051.18
2018-01-28T23:25:11.286Z,102058.73
2018-01-28T23:27:40.001Z,102062.69
2018-01-28T23:30:08.301Z,102058.19
2018-01-28T23:32:36.643Z,102060.55
2018-01-28T23:35:05.478Z,102047.04
2018-01-28T23:37:33.798Z,102055.47
2018-01-28T23:40:02.142Z,102058.19
2018-01-28T23:42:31.012Z,102063.98
2018-01-28T23:44:59.332Z,102070.55
2018-01-28T23:47:27.666Z,102068.91
2018-01-28T23:49:56.175Z,102074.28
2018-01-28T23:52:24.563Z,102069.70
2018-01-28T23:54:53.159Z,102066.84
2018-01-28T23:57:21.760Z,102061.63
2018-01-28T23:59:50.077Z,102072.55
